createdAt,value
2023-11-06T00:00:22.671Z,98017.11
2023-11-06T00:03:11.362Z,98016.73
2023-11-06T00:05:39.655Z,98020.43
2023-11-06T00:08:08.042Z,98021.60
2023-11-06T00:10:36.161Z,98028.20
2023-11-06T00:13:05.488Z,98031.14
2023-11-06T00:15:33.724Z,98036.70
2023-11-06T00:18:01.881Z,98040.92
2023-11-06T00:20:30.137Z,98043.40
2023-11-06T00:22:58.302Z,98048.67
2023-11-06T00:25:27.227Z,98049.98
2023-11-06T00:27:57.152Z,98056.09
2023-11-06T00:30:25.284Z,98063.88
2023-11-06T00:32:53.556Z,98066.81
2023-11-06T00:35:21.785Z,98068.52
2023-11-06T00:37:50.029Z,98073.66
2023-11-06T00:40:19.258Z,98073.11
2023-11-06T00:42:47.462Z,98080.48
2023-11-06T00:45:15.859Z,98080.21
2023-11-06T00:47:44.000Z,98082.36
2023-11-06T00:50:12.612Z,98086.73
2023-11-06T00:52:41.076Z,98085.31
2023-11-06T00:55:09.488Z,98091.30
2023-11-06T00:57:37.653Z,98095.20
2023-11-06T01:00:06.224Z,98098.51
2023-11-06T01:02:34.451Z,98101.63
2023-11-06T01:05:03.043Z,98105.98
2023-11-06T01:07:32.509Z,98108.06
2023-11-06T01:10:01.212Z,98109.71
2023-11-06T01:12:29.687Z,98115.09
2023-11-06T01:14:58.640Z,98120.11
2023-11-06T01:17:27.016Z,98120.11
2023-11-06T01:19:55.202Z,98127.09
2023-11-06T01:22:31.239Z,98127.67
2023-11-06T01:25:07.668Z,98134.66
2023-11-06T01:27:35.778Z,98136.20
2023-11-06T01:30:05.258Z,98142.34
2023-11-06T01:32:33.593Z,98148.45
2023-11-06T01:35:01.845Z,98151.34
2023-11-06T01:37:30.736Z,98153.11
2023-11-06T01:39:58.927Z,98155.92
2023-11-06T01:42:28.104Z,98156.59
2023-11-06T01:44:56.144Z,98155.90
2023-11-06T01:47:24.427Z,98159.80
2023-11-06T01:49:52.593Z,98168.73
2023-11-06T01:52:22.750Z,98168.48
2023-11-06T01:54:50.778Z,98170.25
2023-11-06T01:57:20.365Z,98166.91
2023-11-06T01:59:49.138Z,98166.61
2023-11-06T02:02:19.812Z,98170.89
2023-11-06T02:04:50.752Z,98174.82
2023-11-06T02:07:19.274Z,98179.23
2023-11-06T02:09:47.515Z,98188.81
2023-11-06T02:12:15.473Z,98192.92
2023-11-06T02:14:53.849Z,98195.00
2023-11-06T02:17:23.130Z,98197.02
2023-11-06T02:19:51.627Z,98205.02
2023-11-06T02:22:21.191Z,98208.70
2023-11-06T02:24:50.306Z,98211.98
2023-11-06T02:27:19.163Z,98215.08
2023-11-06T02:29:49.726Z,98215.92
2023-11-06T02:32:17.821Z,98221.14
2023-11-06T02:34:46.715Z,98223.11
2023-11-06T02:37:15.125Z,98230.33
2023-11-06T02:39:43.085Z,98233.20
2023-11-06T02:42:11.310Z,98238.73
2023-11-06T02:44:39.753Z,98236.15
2023-11-06T02:47:08.587Z,98238.45
2023-11-06T02:49:37.012Z,98236.87
2023-11-06T02:52:05.239Z,98243.25
2023-11-06T02:54:33.205Z,98248.75
2023-11-06T02:57:01.365Z,98252.15
2023-11-06T02:59:29.414Z,98255.19
2023-11-06T03:01:57.393Z,98261.41
2023-11-06T03:04:25.687Z,98264.92
2023-11-06T03:06:53.697Z,98270.27
2023-11-06T03:09:21.805Z,98269.13
2023-11-06T03:11:50.028Z,98272.36
2023-11-06T03:14:18.602Z,98277.89
2023-11-06T03:16:46.679Z,98282.58
2023-11-06T03:19:14.769Z,98283.48
2023-11-06T03:21:42.906Z,98283.17
2023-11-06T03:24:10.917Z,98284.00
2023-11-06T03:26:38.860Z,98286.73
2023-11-06T03:29:07.102Z,98280.82
2023-11-06T03:31:35.057Z,98284.27
2023-11-06T03:34:03.976Z,98285.69
2023-11-06T03:36:32.074Z,98283.53
2023-11-06T03:39:00.189Z,98287.08
2023-11-06T03:41:28.301Z,98298.03
2023-11-06T03:43:56.223Z,98305.95
2023-11-06T03:46:24.516Z,98309.95
2023-11-06T03:48:52.661Z,98313.83
2023-11-06T03:51:20.577Z,98319.06
2023-11-06T03:53:48.530Z,98326.36
2023-11-06T03:56:16.824Z,98324.88
2023-11-06T03:58:45.351Z,98323.23
2023-11-06T04:01:13.495Z,98331.47
2023-11-06T04:03:41.843Z,98332.33
2023-11-06T04:06:10.285Z,98336.71
2023-11-06T04:08:38.314Z,98336.94
2023-11-06T04:11:06.461Z,98343.52
2023-11-06T04:13:34.452Z,98342.27
2023-11-06T04:16:04.837Z,98349.48
2023-11-06T04:18:32.935Z,98356.66
2023-11-06T04:21:02.186Z,98357.68
2023-11-06T04:23:33.560Z,98361.16
2023-11-06T04:26:02.002Z,98366.09
2023-11-06T04:28:30.018Z,98362.69
2023-11-06T04:30:57.948Z,98375.23
2023-11-06T04:33:26.034Z,98375.57
2023-11-06T04:35:54.111Z,98384.73
2023-11-06T04:38:22.108Z,98389.84
2023-11-06T04:40:50.486Z,98390.73
2023-11-06T04:43:18.703Z,98393.23
2023-11-06T04:45:46.558Z,98398.30
2023-11-06T04:48:14.583Z,98406.48
2023-11-06T04:50:44.287Z,98406.52
2023-11-06T04:53:12.370Z,98407.84
2023-11-06T04:55:40.462Z,98412.09
2023-11-06T04:58:08.449Z,98415.67
2023-11-06T05:00:37.047Z,98426.58
2023-11-06T05:03:05.244Z,98430.05
2023-11-06T05:05:33.431Z,98435.81
2023-11-06T05:08:01.448Z,98439.48
2023-11-06T05:10:30.556Z,98445.51
2023-11-06T05:12:59.199Z,98448.49
2023-11-06T05:15:27.117Z,98449.33
2023-11-06T05:17:55.113Z,98461.31
2023-11-06T05:20:24.287Z,98465.45
2023-11-06T05:22:52.479Z,98472.66
2023-11-06T05:25:20.887Z,98473.17
2023-11-06T05:27:49.081Z,98477.88
2023-11-06T05:30:17.008Z,98481.87
2023-11-06T05:32:45.792Z,98486.77
2023-11-06T05:35:13.861Z,98490.18
2023-11-06T05:37:41.855Z,98500.88
2023-11-06T05:40:10.557Z,98505.05
2023-11-06T05:42:38.677Z,98511.75
2023-11-06T05:45:10.801Z,98520.08
2023-11-06T05:47:39.070Z,98525.95
2023-11-06T05:50:08.009Z,98530.90
2023-11-06T05:52:35.952Z,98537.19
2023-11-06T05:55:05.943Z,98540.17
2023-11-06T05:57:33.997Z,98546.77
2023-11-06T06:00:02.585Z,98551.73
2023-11-06T06:02:40.604Z,98555.89
2023-11-06T06:05:08.947Z,98557.36
2023-11-06T06:07:36.836Z,98566.45
2023-11-06T06:10:06.212Z,98572.55
2023-11-06T06:12:34.763Z,98573.23
2023-11-06T06:15:03.003Z,98579.39
2023-11-06T06:17:31.355Z,98582.70
2023-11-06T06:19:59.412Z,98587.14
2023-11-06T06:22:27.500Z,98594.48
2023-11-06T06:24:55.568Z,98599.73
2023-11-06T06:27:23.980Z,98602.35
2023-11-06T06:29:53.472Z,98611.36
2023-11-06T06:32:21.526Z,98615.41
2023-11-06T06:34:49.610Z,98623.85
2023-11-06T06:37:18.016Z,98626.62
2023-11-06T06:39:46.275Z,98634.61
2023-11-06T06:42:15.155Z,98638.08
2023-11-06T06:44:43.221Z,98646.10
2023-11-06T06:47:11.832Z,98650.39
2023-11-06T06:49:42.696Z,98656.77
2023-11-06T06:52:11.439Z,98667.77
2023-11-06T06:54:40.292Z,98670.30
2023-11-06T06:57:08.263Z,98674.09
2023-11-06T06:59:37.303Z,98679.27
2023-11-06T07:02:07.007Z,98686.56
2023-11-06T07:04:35.072Z,98692.77
2023-11-06T07:07:03.095Z,98695.20
2023-11-06T07:09:33.518Z,98699.89
2023-11-06T07:12:06.760Z,98705.23
2023-11-06T07:14:35.672Z,98710.17
2023-11-06T07:17:07.052Z,98712.33
2023-11-06T07:19:35.086Z,98718.30
2023-11-06T07:22:03.309Z,98720.30
2023-11-06T07:24:31.966Z,98724.82
2023-11-06T07:27:00.224Z,98725.17
2023-11-06T07:29:28.887Z,98732.61
2023-11-06T07:31:56.977Z,98734.44
2023-11-06T07:34:25.182Z,98732.95
2023-11-06T07:36:54.324Z,98735.70
2023-11-06T07:39:22.501Z,98738.39
2023-11-06T07:41:50.564Z,98744.11
2023-11-06T07:44:21.836Z,98752.30
2023-11-06T07:46:50.927Z,98756.67
2023-11-06T07:49:19.412Z,98759.85
2023-11-06T07:51:49.755Z,98764.50
2023-11-06T07:54:17.738Z,98770.36
2023-11-06T07:56:47.140Z,98770.80
2023-11-06T07:59:15.201Z,98775.48
2023-11-06T08:01:43.245Z,98779.61
2023-11-06T08:04:11.353Z,98786.85
2023-11-06T08:06:39.417Z,98788.12
2023-11-06T08:09:07.900Z,98793.65
2023-11-06T08:11:37.338Z,98795.30
2023-11-06T08:14:06.208Z,98802.30
2023-11-06T08:16:36.104Z,98808.74
2023-11-06T08:19:04.418Z,98810.59
2023-11-06T08:21:32.391Z,98816.66
2023-11-06T08:24:01.484Z,98822.73
2023-11-06T08:26:29.710Z,98837.98
2023-11-06T08:28:57.895Z,98839.31
2023-11-06T08:31:26.264Z,98841.85
2023-11-06T08:33:54.564Z,98844.23
2023-11-06T08:36:22.649Z,98849.12
2023-11-06T08:38:50.536Z,98847.09
2023-11-06T08:41:18.656Z,98851.91
2023-11-06T08:43:47.638Z,98856.73
2023-11-06T08:46:15.602Z,98862.19
2023-11-06T08:48:46.726Z,98874.54
2023-11-06T08:51:14.817Z,98883.73
2023-11-06T08:53:42.927Z,98886.65
2023-11-06T08:56:12.323Z,98886.25
2023-11-06T08:58:40.285Z,98897.05
2023-11-06T09:01:09.526Z,98900.11
2023-11-06T09:03:40.120Z,98901.98
2023-11-06T09:06:10.187Z,98908.52
2023-11-06T09:08:38.640Z,98917.80
2023-11-06T09:11:08.507Z,98914.20
2023-11-06T09:13:37.552Z,98920.95
2023-11-06T09:16:06.561Z,98929.25
2023-11-06T09:18:34.717Z,98935.22
2023-11-06T09:21:05.253Z,98944.00
2023-11-06T09:23:33.242Z,98950.20
2023-11-06T09:26:02.103Z,98952.83
2023-11-06T09:28:30.038Z,98952.36
2023-11-06T09:30:58.070Z,98955.11
2023-11-06T09:33:26.702Z,98958.65
2023-11-06T09:35:54.769Z,98961.85
2023-11-06T09:38:22.869Z,98962.91
2023-11-06T09:40:51.013Z,98965.48
2023-11-06T09:43:19.839Z,98970.40
2023-11-06T09:45:48.672Z,98969.15
2023-11-06T09:48:19.615Z,98970.81
2023-11-06T09:50:50.253Z,98971.33
2023-11-06T09:53:19.918Z,98974.36
2023-11-06T09:55:48.067Z,98978.66
2023-11-06T09:58:16.680Z,98980.36
2023-11-06T10:00:45.085Z,98982.56
2023-11-06T10:03:14.652Z,98987.83
2023-11-06T10:05:43.109Z,98987.17
2023-11-06T10:08:11.445Z,98989.94
2023-11-06T10:10:42.199Z,98997.66
2023-11-06T10:13:13.594Z,98997.67
2023-11-06T10:15:41.786Z,98998.33
2023-11-06T10:18:15.806Z,98999.20
2023-11-06T10:20:45.689Z,99007.78
2023-11-06T10:23:24.256Z,99010.91
2023-11-06T10:25:59.002Z,99014.27
2023-11-06T10:28:27.720Z,99016.08
2023-11-06T10:30:56.095Z,99018.70
2023-11-06T10:33:25.318Z,99021.25
2023-11-06T10:35:53.662Z,99021.04
2023-11-06T10:38:34.647Z,99024.45
2023-11-06T10:41:18.075Z,99027.90
2023-11-06T10:43:57.114Z,99032.86
2023-11-06T10:46:32.860Z,99041.46
2023-11-06T10:49:11.495Z,99046.28
2023-11-06T10:51:41.725Z,99051.58
2023-11-06T10:54:11.209Z,99055.42
2023-11-06T10:56:40.802Z,99060.17
2023-11-06T10:59:10.107Z,99058.70
2023-11-06T11:01:40.248Z,99067.85
2023-11-06T11:04:12.030Z,99075.70
2023-11-06T11:06:42.336Z,99078.23
2023-11-06T11:09:12.687Z,99082.94
2023-11-06T11:11:40.928Z,99081.95
2023-11-06T11:14:14.030Z,99092.81
2023-11-06T11:16:46.344Z,99095.61
2023-11-06T11:19:22.623Z,99096.88
2023-11-06T11:22:07.504Z,99094.67
2023-11-06T11:24:47.470Z,99091.90
2023-11-06T11:27:19.007Z,99096.01
2023-11-06T11:29:57.861Z,99093.98
2023-11-06T11:32:28.723Z,99101.88
2023-11-06T11:34:58.918Z,99094.45
2023-11-06T11:37:30.955Z,99099.78
2023-11-06T11:40:01.441Z,99095.27
2023-11-06T11:42:30.297Z,99099.58
2023-11-06T11:45:00.591Z,99111.06
2023-11-06T11:47:47.557Z,99110.71
2023-11-06T11:50:28.494Z,99110.46
2023-11-06T11:52:57.552Z,99110.43
2023-11-06T11:55:43.492Z,99118.61
2023-11-06T11:58:12.914Z,99116.83
2023-11-06T12:00:46.013Z,99116.86
2023-11-06T12:03:18.021Z,99121.94
2023-11-06T12:05:56.948Z,99117.48
2023-11-06T12:08:30.071Z,99127.97
2023-11-06T12:11:11.474Z,99128.67
2023-11-06T12:13:40.443Z,99136.17
2023-11-06T12:16:09.407Z,99139.92
2023-11-06T12:18:44.316Z,99144.25
2023-11-06T12:21:15.845Z,99148.52
2023-11-06T12:23:44.417Z,99151.00
2023-11-06T12:26:16.216Z,99154.23
2023-11-06T12:28:49.456Z,99154.66
2023-11-06T12:31:21.154Z,99160.28
2023-11-06T12:33:49.656Z,99167.45
2023-11-06T12:36:33.401Z,99167.72
2023-11-06T12:39:03.387Z,99174.86
2023-11-06T12:41:35.289Z,99174.51
2023-11-06T12:44:04.469Z,99174.08
2023-11-06T12:49:19.754Z,99181.36
2023-11-06T12:51:51.316Z,99179.25
2023-11-06T12:54:25.854Z,99181.50
2023-11-06T12:56:55.023Z,99183.60
2023-11-06T12:59:23.491Z,99188.89
2023-11-06T13:01:52.835Z,99195.17
2023-11-06T13:04:21.729Z,99199.35
2023-11-06T13:06:49.888Z,99202.86
2023-11-06T13:09:18.474Z,99207.61
2023-11-06T13:11:46.604Z,99206.67
2023-11-06T13:14:16.217Z,99208.46
2023-11-06T13:16:44.613Z,99211.67
2023-11-06T13:19:14.215Z,99218.38
2023-11-06T13:21:42.627Z,99217.40
2023-11-06T13:24:10.571Z,99221.18
2023-11-06T13:26:39.074Z,99222.44
2023-11-06T13:29:09.270Z,99228.56
2023-11-06T13:31:37.313Z,99232.49
2023-11-06T13:34:05.544Z,99235.25
2023-11-06T13:36:34.588Z,99239.09
2023-11-06T13:39:02.560Z,99240.29
2023-11-06T13:41:30.923Z,99246.81
2023-11-06T13:43:59.417Z,99252.81
2023-11-06T13:46:29.983Z,99260.66
2023-11-06T13:48:58.670Z,99266.15
2023-11-06T13:51:27.910Z,99275.21
2023-11-06T13:54:03.406Z,99277.60
2023-11-06T13:56:39.419Z,99284.27
2023-11-06T13:59:11.100Z,99287.41
2023-11-06T14:01:50.058Z,99288.17
2023-11-06T14:04:19.112Z,99292.37
2023-11-06T14:06:50.299Z,99293.88
2023-11-06T14:09:40.144Z,99298.55
2023-11-06T14:12:12.461Z,99296.57
2023-11-06T14:14:41.525Z,99299.37
2023-11-06T14:17:11.457Z,99302.73
2023-11-06T14:19:42.754Z,99308.45
2023-11-06T14:22:11.909Z,99317.05
2023-11-06T14:24:40.453Z,99325.30
2023-11-06T14:27:09.126Z,99332.03
2023-11-06T14:29:37.888Z,99330.09
2023-11-06T14:32:07.151Z,99337.81
2023-11-06T14:34:35.441Z,99338.92
2023-11-06T14:37:03.601Z,99342.91
2023-11-06T14:39:31.605Z,99343.84
2023-11-06T14:41:59.698Z,99349.73
2023-11-06T14:44:29.233Z,99349.23
2023-11-06T14:46:57.915Z,99353.81
2023-11-06T14:49:26.242Z,99355.52
2023-11-06T14:51:54.372Z,99358.95
2023-11-06T14:54:22.548Z,99362.98
2023-11-06T14:56:50.622Z,99365.32
2023-11-06T14:59:19.200Z,99371.83
2023-11-06T15:01:48.562Z,99371.10
2023-11-06T15:04:16.896Z,99377.21
2023-11-06T15:06:44.992Z,99379.12
2023-11-06T15:09:12.957Z,99380.02
2023-11-06T15:11:40.901Z,99386.64
2023-11-06T15:14:10.549Z,99383.72
2023-11-06T15:16:38.558Z,99388.52
2023-11-06T15:19:07.694Z,99395.98
2023-11-06T15:21:35.871Z,99399.77
2023-11-06T15:24:04.023Z,99402.57
2023-11-06T15:26:32.992Z,99405.19
2023-11-06T15:29:01.057Z,99406.54
2023-11-06T15:31:29.851Z,99408.58
2023-11-06T15:33:58.146Z,99408.67
2023-11-06T15:36:26.288Z,99413.39
2023-11-06T15:38:54.834Z,99408.04
2023-11-06T15:41:23.674Z,99413.73
2023-11-06T15:43:51.553Z,99412.95
2023-11-06T15:46:27.180Z,99418.16
2023-11-06T15:49:00.228Z,99418.05
2023-11-06T15:51:28.590Z,99420.27
2023-11-06T15:53:57.626Z,99429.87
2023-11-06T15:56:26.095Z,99434.38
2023-11-06T15:58:54.098Z,99436.38
2023-11-06T16:01:22.197Z,99440.46
2023-11-06T16:03:50.540Z,99442.27
2023-11-06T16:06:18.652Z,99443.52
2023-11-06T16:08:47.059Z,99447.02
2023-11-06T16:11:16.216Z,99450.20
2023-11-06T16:13:50.274Z,99449.15
2023-11-06T16:16:18.766Z,99451.05
2023-11-06T16:18:46.964Z,99454.44
2023-11-06T16:21:15.056Z,99460.09
2023-11-06T16:23:43.489Z,99462.52
2023-11-06T16:26:11.616Z,99473.05
2023-11-06T16:28:40.354Z,99480.33
2023-11-06T16:31:09.455Z,99486.37
2023-11-06T16:33:38.695Z,99496.81
2023-11-06T16:36:12.278Z,99502.93
2023-11-06T16:38:43.307Z,99506.45
2023-11-06T16:41:11.340Z,99506.48
2023-11-06T16:43:39.403Z,99506.65
2023-11-06T16:46:10.151Z,99512.59
2023-11-06T16:48:39.348Z,99519.88
2023-11-06T16:51:07.938Z,99523.11
2023-11-06T16:53:36.169Z,99528.05
2023-11-06T16:56:04.437Z,99533.43
2023-11-06T16:58:32.532Z,99536.31
2023-11-06T17:01:00.524Z,99536.50
2023-11-06T17:03:29.213Z,99539.96
2023-11-06T17:05:59.435Z,99541.04
2023-11-06T17:08:27.949Z,99542.90
2023-11-06T17:10:56.657Z,99549.86
2023-11-06T17:13:25.642Z,99552.58
2023-11-06T17:15:53.813Z,99558.17
2023-11-06T17:18:22.191Z,99562.03
2023-11-06T17:20:50.703Z,99565.59
2023-11-06T17:23:18.898Z,99571.23
2023-11-06T17:25:47.573Z,99573.31
2023-11-06T17:28:15.668Z,99583.09
2023-11-06T17:30:43.988Z,99586.41
2023-11-06T17:33:12.129Z,99592.45
2023-11-06T17:35:40.495Z,99595.75
2023-11-06T17:38:09.842Z,99600.21
2023-11-06T17:40:42.206Z,99607.95
2023-11-06T17:43:11.255Z,99608.67
2023-11-06T17:45:39.493Z,99608.28
2023-11-06T17:48:09.764Z,99620.59
2023-11-06T17:50:38.463Z,99619.68
2023-11-06T17:53:06.576Z,99622.31
2023-11-06T17:55:34.928Z,99623.34
2023-11-06T17:58:03.178Z,99630.92
2023-11-06T18:00:31.143Z,99632.01
2023-11-06T18:02:59.409Z,99637.11
2023-11-06T18:05:28.077Z,99643.51
2023-11-06T18:07:56.070Z,99646.45
2023-11-06T18:10:24.299Z,99648.95
2023-11-06T18:12:52.724Z,99654.66
2023-11-06T18:15:20.829Z,99659.17
2023-11-06T18:17:49.223Z,99664.14
2023-11-06T18:20:19.462Z,99665.36
2023-11-06T18:22:48.445Z,99670.39
2023-11-06T18:25:18.597Z,99675.98
2023-11-06T18:27:47.165Z,99677.37
2023-11-06T18:30:15.542Z,99678.80
2023-11-06T18:32:45.031Z,99684.09
2023-11-06T18:35:13.408Z,99681.80
2023-11-06T18:37:41.646Z,99685.98
2023-11-06T18:40:10.421Z,99686.88
2023-11-06T18:42:41.555Z,99686.62
2023-11-06T18:45:10.494Z,99689.23
2023-11-06T18:47:38.800Z,99694.09
2023-11-06T18:50:07.450Z,99692.23
2023-11-06T18:52:35.782Z,99696.05
2023-11-06T18:55:05.457Z,99699.98
2023-11-06T18:57:33.563Z,99700.25
2023-11-06T19:00:01.551Z,99698.23
2023-11-06T19:02:29.874Z,99704.15
2023-11-06T19:04:58.628Z,99705.60
2023-11-06T19:07:27.866Z,99712.33
2023-11-06T19:09:56.606Z,99716.18
2023-11-06T19:12:24.744Z,99724.63
2023-11-06T19:14:52.782Z,99729.66
2023-11-06T19:17:20.988Z,99732.26
2023-11-06T19:19:49.728Z,99733.96
2023-11-06T19:22:18.413Z,99739.11
2023-11-06T19:24:53.085Z,99741.55
2023-11-06T19:27:25.615Z,99744.49
2023-11-06T19:29:55.991Z,99750.94
2023-11-06T19:32:24.866Z,99749.02
2023-11-06T19:34:53.169Z,99749.00
2023-11-06T19:37:21.343Z,99751.17
2023-11-06T19:39:49.729Z,99752.98
2023-11-06T19:42:19.572Z,99753.02
2023-11-06T19:44:49.370Z,99758.86
2023-11-06T19:47:17.504Z,99762.30
2023-11-06T19:49:45.549Z,99768.17
2023-11-06T19:52:14.887Z,99770.87
2023-11-06T19:54:43.174Z,99776.36
2023-11-06T19:57:11.664Z,99780.06
2023-11-06T19:59:47.241Z,99782.98
2023-11-06T20:02:26.452Z,99783.46
2023-11-06T20:04:56.287Z,99789.86
2023-11-06T20:07:24.384Z,99791.83
2023-11-06T20:09:52.484Z,99795.79
2023-11-06T20:12:20.626Z,99798.23
2023-11-06T20:14:48.716Z,99795.66
2023-11-06T20:17:16.950Z,99799.63
2023-11-06T20:19:45.057Z,99800.29
2023-11-06T20:22:14.010Z,99800.71
2023-11-06T20:24:43.862Z,99806.38
2023-11-06T20:27:12.039Z,99812.76
2023-11-06T20:29:40.340Z,99810.36
2023-11-06T20:32:08.586Z,99809.92
2023-11-06T20:34:36.649Z,99810.94
2023-11-06T20:37:04.795Z,99814.13
2023-11-06T20:39:33.017Z,99811.92
2023-11-06T20:42:01.304Z,99812.40
2023-11-06T20:44:30.376Z,99812.59
2023-11-06T20:46:58.471Z,99814.96
2023-11-06T20:49:26.594Z,99815.27
2023-11-06T20:51:54.727Z,99816.09
2023-11-06T20:54:23.309Z,99818.45
2023-11-06T20:56:51.427Z,99818.55
2023-11-06T20:59:19.541Z,99819.35
2023-11-06T21:01:47.629Z,99817.88
2023-11-06T21:04:16.776Z,99824.28
2023-11-06T21:06:44.996Z,99824.95
2023-11-06T21:09:15.254Z,99828.73
2023-11-06T21:11:43.468Z,99828.34
2023-11-06T21:14:12.427Z,99831.62
2023-11-06T21:16:40.854Z,99829.96
2023-11-06T21:19:09.045Z,99834.50
2023-11-06T21:21:37.119Z,99832.66
2023-11-06T21:24:07.794Z,99833.27
2023-11-06T21:26:36.084Z,99834.84
2023-11-06T21:29:04.172Z,99834.87
2023-11-06T21:31:32.387Z,99842.41
2023-11-06T21:34:02.428Z,99842.88
2023-11-06T21:36:30.716Z,99839.00
2023-11-06T21:38:59.288Z,99841.63
2023-11-06T21:41:27.952Z,99845.14
2023-11-06T21:43:56.753Z,99847.78
2023-11-06T21:46:24.968Z,99852.30
2023-11-06T21:48:53.452Z,99854.54
2023-11-06T21:51:21.788Z,99859.55
2023-11-06T21:53:50.012Z,99857.50
2023-11-06T21:56:18.279Z,99860.08
2023-11-06T21:58:49.808Z,99864.65
2023-11-06T22:01:19.954Z,99862.62
2023-11-06T22:03:48.213Z,99865.58
2023-11-06T22:06:16.379Z,99868.44
2023-11-06T22:08:44.715Z,99873.15
2023-11-06T22:11:12.820Z,99872.11
2023-11-06T22:13:40.728Z,99875.95
2023-11-06T22:16:08.828Z,99878.75
2023-11-06T22:18:36.897Z,99879.39
2023-11-06T22:21:05.332Z,99884.46
2023-11-06T22:23:34.116Z,99895.91
2023-11-06T22:26:02.602Z,99900.21
2023-11-06T22:28:31.501Z,99904.17
2023-11-06T22:30:59.736Z,99903.03
2023-11-06T22:33:27.995Z,99905.45
2023-11-06T22:35:56.293Z,99902.69
2023-11-06T22:38:24.280Z,99905.05
2023-11-06T22:40:52.222Z,99906.50
2023-11-06T22:43:20.229Z,99911.06
2023-11-06T22:45:48.570Z,99909.06
2023-11-06T22:48:16.631Z,99910.41
2023-11-06T22:50:45.640Z,99910.81
2023-11-06T22:53:19.927Z,99910.17
2023-11-06T22:55:48.232Z,99911.73
2023-11-06T22:58:16.446Z,99913.78
2023-11-06T23:00:47.938Z,99918.20
2023-11-06T23:03:16.386Z,99921.89
2023-11-06T23:05:46.837Z,99918.62
2023-11-06T23:08:15.387Z,99920.39
2023-11-06T23:10:44.153Z,99920.82
2023-11-06T23:13:13.025Z,99924.39
2023-11-06T23:15:41.102Z,99928.59
2023-11-06T23:18:09.486Z,99932.52
2023-11-06T23:20:37.698Z,99937.80
2023-11-06T23:23:06.889Z,99940.21
2023-11-06T23:25:38.840Z,99940.66
2023-11-06T23:28:08.169Z,99943.27
2023-11-06T23:30:36.235Z,99940.21
2023-11-06T23:33:04.641Z,99944.50
2023-11-06T23:35:36.138Z,99942.34
2023-11-06T23:38:04.390Z,99949.09
2023-11-06T23:40:33.868Z,99948.98
2023-11-06T23:43:02.998Z,99953.84
2023-11-06T23:45:31.234Z,99954.73
2023-11-06T23:47:59.443Z,99955.13
2023-11-06T23:50:27.850Z,99955.39
2023-11-06T23:52:56.166Z,99958.50
2023-11-06T23:55:24.520Z,99958.52
2023-11-06T23:57:52.613Z,99962.02
